createdAt,value
2017-04-26T00:00:53.887Z,3.73
2017-04-26T00:01:54.494Z,3.72
2017-04-26T00:02:55.117Z,3.80
2017-04-26T00:03:55.700Z,3.77
2017-04-26T00:04:56.304Z,3.75
2017-04-26T00:05:56.903Z,3.60
2017-04-26T00:06:57.491Z,3.62
2017-04-26T00:07:58.088Z,3.63
2017-04-26T00:08:58.692Z,3.64
2017-04-26T00:09:59.300Z,3.57
2017-04-26T00:10:59.898Z,3.59
2017-04-26T00:12:00.502Z,3.42
2017-04-26T00:13:01.096Z,3.44
2017-04-26T00:14:01.702Z,3.42
2017-04-26T00:15:02.306Z,3.39
2017-04-26T00:16:02.903Z,3.42
2017-04-26T00:17:03.492Z,3.35
2017-04-26T00:18:04.085Z,3.27
2017-04-26T00:19:04.683Z,3.29
2017-04-26T00:20:05.275Z,3.25
2017-04-26T00:21:05.877Z,3.26
2017-04-26T00:22:06.481Z,3.15
2017-04-26T00:23:07.073Z,3.19
2017-04-26T00:24:07.678Z,3.14
2017-04-26T00:25:08.284Z,3.11
2017-04-26T00:26:08.940Z,3.14
2017-04-26T00:27:09.545Z,3.15
2017-04-26T00:28:10.138Z,3.11
2017-04-26T00:29:10.729Z,3.12
2017-04-26T00:30:11.333Z,3.04
2017-04-26T00:31:11.933Z,3.01
2017-04-26T00:32:12.531Z,3.02
2017-04-26T00:33:13.122Z,3.00
2017-04-26T00:34:13.722Z,3.00
2017-04-26T00:35:14.326Z,3.01
2017-04-26T00:36:14.932Z,2.91
2017-04-26T00:37:15.534Z,3.00
2017-04-26T00:38:16.136Z,2.97
2017-04-26T00:39:16.739Z,2.89
2017-04-26T00:40:17.336Z,2.94
2017-04-26T00:41:17.981Z,2.79
2017-04-26T00:42:18.582Z,2.84
2017-04-26T00:43:19.186Z,2.79
2017-04-26T00:44:19.791Z,2.78
2017-04-26T00:45:20.393Z,2.82
2017-04-26T00:46:21.004Z,2.68
2017-04-26T00:47:21.606Z,2.66
2017-04-26T00:48:22.210Z,2.60
2017-04-26T00:49:22.804Z,2.64
2017-04-26T00:50:23.413Z,2.62
2017-04-26T00:51:24.006Z,2.58
2017-04-26T00:52:24.614Z,2.54
2017-04-26T00:53:25.204Z,2.54
2017-04-26T00:54:25.795Z,2.55
2017-04-26T00:55:26.393Z,2.51
2017-04-26T00:56:26.984Z,2.50
2017-04-26T00:57:27.589Z,2.40
2017-04-26T00:58:28.188Z,2.47
2017-04-26T00:59:28.782Z,2.47
2017-04-26T01:00:29.383Z,2.44
2017-04-26T01:01:29.980Z,2.44
2017-04-26T01:02:30.580Z,2.42
2017-04-26T01:03:31.175Z,2.47
2017-04-26T01:04:31.779Z,2.50
2017-04-26T01:05:32.384Z,2.32
2017-04-26T01:06:32.988Z,2.36
2017-04-26T01:07:33.576Z,2.35
2017-04-26T01:08:34.178Z,2.42
2017-04-26T01:09:34.782Z,2.35
2017-04-26T01:10:35.374Z,2.28
2017-04-26T01:11:35.976Z,2.26
2017-04-26T01:12:36.567Z,2.30
2017-04-26T01:13:37.156Z,2.22
2017-04-26T01:14:37.747Z,2.22
2017-04-26T01:15:38.353Z,2.35
2017-04-26T01:16:38.959Z,2.30
2017-04-26T01:17:39.551Z,2.26
2017-04-26T01:18:40.139Z,2.22
2017-04-26T01:19:40.737Z,2.29
2017-04-26T01:20:41.339Z,2.22
2017-04-26T01:21:41.928Z,2.18
2017-04-26T01:22:42.534Z,2.19
2017-04-26T01:23:43.123Z,2.18
2017-04-26T01:24:43.725Z,2.17
2017-04-26T01:25:44.331Z,2.21
2017-04-26T01:26:44.936Z,2.17
2017-04-26T01:27:45.527Z,2.12
2017-04-26T01:28:46.117Z,2.19
2017-04-26T01:29:46.712Z,2.21
2017-04-26T01:30:47.315Z,2.18
2017-04-26T01:31:47.916Z,2.15
2017-04-26T01:32:48.508Z,2.14
2017-04-26T01:33:49.112Z,2.14
2017-04-26T01:34:49.756Z,2.08
2017-04-26T01:35:50.365Z,2.09
2017-04-26T01:36:50.966Z,2.12
2017-04-26T01:37:51.563Z,2.04
2017-04-26T01:38:52.162Z,2.09
2017-04-26T01:39:52.768Z,2.07
2017-04-26T01:40:53.355Z,2.19
2017-04-26T01:41:53.945Z,2.04
2017-04-26T01:42:54.543Z,2.09
2017-04-26T01:43:55.145Z,2.07
2017-04-26T01:44:55.737Z,2.04
2017-04-26T01:45:56.342Z,2.09
2017-04-26T01:46:56.943Z,2.04
2017-04-26T01:47:57.538Z,2.04
2017-04-26T01:48:58.140Z,2.07
2017-04-26T01:49:58.742Z,2.08
2017-04-26T01:50:59.348Z,2.12
2017-04-26T01:51:59.945Z,2.12
2017-04-26T01:53:00.537Z,2.11
2017-04-26T01:54:01.131Z,2.00
2017-04-26T01:55:01.783Z,2.04
2017-04-26T01:56:02.377Z,2.03
2017-04-26T01:57:02.971Z,2.09
2017-04-26T01:58:03.569Z,2.08
2017-04-26T01:59:04.165Z,2.11
2017-04-26T02:00:04.753Z,2.03
2017-04-26T02:01:05.352Z,2.01
2017-04-26T02:02:05.950Z,1.97
2017-04-26T02:03:06.543Z,1.93
2017-04-26T02:04:07.148Z,1.93
2017-04-26T02:05:07.754Z,1.90
2017-04-26T02:06:08.358Z,1.88
2017-04-26T02:07:08.951Z,1.89
2017-04-26T02:08:09.542Z,1.89
2017-04-26T02:09:10.140Z,1.92
2017-04-26T02:10:10.791Z,1.90
2017-04-26T02:11:11.396Z,1.99
2017-04-26T02:12:12.000Z,1.90
2017-04-26T02:13:12.605Z,1.99
2017-04-26T02:14:13.211Z,1.85
2017-04-26T02:15:13.811Z,1.93
2017-04-26T02:16:14.414Z,1.97
2017-04-26T02:17:15.015Z,1.93
2017-04-26T02:18:15.616Z,1.82
2017-04-26T02:19:16.225Z,1.85
2017-04-26T02:20:16.810Z,1.92
2017-04-26T02:21:17.412Z,1.93
2017-04-26T02:22:18.002Z,1.85
2017-04-26T02:23:18.600Z,1.90
2017-04-26T02:24:19.192Z,1.90
2017-04-26T02:25:19.784Z,1.88
2017-04-26T02:26:20.387Z,1.90
2017-04-26T02:27:20.985Z,1.78
2017-04-26T02:28:21.576Z,1.81
2017-04-26T02:29:22.182Z,1.81
2017-04-26T02:30:22.773Z,1.80
2017-04-26T02:31:23.363Z,1.78
2017-04-26T02:32:23.955Z,1.81
2017-04-26T02:33:24.556Z,1.88
2017-04-26T02:34:25.154Z,1.82
2017-04-26T02:35:25.756Z,1.75
2017-04-26T02:36:26.368Z,1.81
2017-04-26T02:37:26.970Z,1.82
2017-04-26T02:38:27.580Z,1.81
2017-04-26T02:39:28.175Z,1.81
2017-04-26T02:40:28.760Z,1.82
2017-04-26T02:41:29.355Z,1.78
2017-04-26T02:42:29.950Z,1.77
2017-04-26T02:43:30.551Z,1.70
2017-04-26T02:44:31.152Z,1.68
2017-04-26T02:45:31.760Z,1.60
2017-04-26T02:46:32.347Z,1.64
2017-04-26T02:47:32.948Z,1.64
2017-04-26T02:48:33.556Z,1.63
2017-04-26T02:49:34.161Z,1.57
2017-04-26T02:50:34.753Z,1.60
2017-04-26T02:51:35.354Z,1.53
2017-04-26T02:52:35.951Z,1.56
2017-04-26T02:53:36.540Z,1.50
2017-04-26T02:54:37.129Z,1.53
2017-04-26T02:55:37.731Z,1.52
2017-04-26T02:56:38.334Z,1.54
2017-04-26T02:57:38.935Z,1.48
2017-04-26T02:58:39.524Z,1.48
2017-04-26T02:59:40.126Z,1.46
2017-04-26T03:00:40.728Z,1.45
2017-04-26T03:01:41.317Z,1.54
2017-04-26T03:02:41.907Z,1.52
2017-04-26T03:03:42.511Z,1.46
2017-04-26T03:04:43.110Z,1.45
2017-04-26T03:05:43.714Z,1.46
2017-04-26T03:06:44.303Z,1.48
2017-04-26T03:07:44.903Z,1.44
2017-04-26T03:08:45.501Z,1.39
2017-04-26T03:09:46.105Z,1.35
2017-04-26T03:10:46.709Z,1.38
2017-04-26T03:11:47.315Z,1.35
2017-04-26T03:12:47.921Z,1.36
2017-04-26T03:13:48.519Z,1.34
2017-04-26T03:14:49.124Z,1.39
2017-04-26T03:15:49.727Z,1.34
2017-04-26T03:16:50.319Z,1.31
2017-04-26T03:17:50.918Z,1.31
2017-04-26T03:18:51.510Z,1.31
2017-04-26T03:19:52.100Z,1.36
2017-04-26T03:20:52.697Z,1.34
2017-04-26T03:21:53.289Z,1.35
2017-04-26T03:22:53.882Z,1.17
2017-04-26T03:23:54.471Z,1.21
2017-04-26T03:24:55.073Z,1.23
2017-04-26T03:25:55.674Z,1.10
2017-04-26T03:26:56.272Z,1.17
2017-04-26T03:27:56.872Z,1.17
2017-04-26T03:28:57.459Z,1.21
2017-04-26T03:29:58.057Z,1.21
2017-04-26T03:30:58.696Z,1.13
2017-04-26T03:31:59.295Z,1.14
2017-04-26T03:32:59.888Z,1.08
2017-04-26T03:34:00.488Z,1.05
2017-04-26T03:35:01.087Z,1.05
2017-04-26T03:36:01.680Z,1.13
2017-04-26T03:37:02.271Z,1.09
2017-04-26T03:38:02.877Z,1.05
2017-04-26T03:39:03.482Z,1.02
2017-04-26T03:40:04.071Z,0.91
2017-04-26T03:41:04.671Z,0.96
2017-04-26T03:42:05.275Z,1.02
2017-04-26T03:43:05.861Z,0.98
2017-04-26T03:44:06.460Z,1.02
2017-04-26T03:45:07.059Z,1.02
2017-04-26T03:46:07.709Z,1.08
2017-04-26T03:47:08.293Z,0.91
2017-04-26T03:48:08.893Z,1.02
2017-04-26T03:49:09.489Z,0.87
2017-04-26T03:50:10.082Z,1.00
2017-04-26T03:51:10.682Z,0.93
2017-04-26T03:52:11.275Z,1.00
2017-04-26T03:53:11.874Z,0.96
2017-04-26T03:54:12.464Z,0.93
2017-04-26T03:55:13.065Z,1.06
2017-04-26T03:56:13.665Z,1.06
2017-04-26T03:57:14.267Z,0.85
2017-04-26T03:58:14.860Z,0.99
2017-04-26T03:59:15.464Z,0.85
2017-04-26T04:00:16.065Z,0.98
2017-04-26T04:01:16.669Z,0.99
2017-04-26T04:02:17.270Z,0.95
2017-04-26T04:03:17.872Z,0.98
2017-04-26T04:04:18.466Z,0.90
2017-04-26T04:05:19.053Z,0.90
2017-04-26T04:06:19.662Z,0.91
2017-04-26T04:07:20.254Z,1.00
2017-04-26T04:08:20.863Z,0.91
2017-04-26T04:09:21.446Z,0.98
2017-04-26T04:10:22.098Z,0.82
2017-04-26T04:11:22.698Z,0.91
2017-04-26T04:12:23.298Z,0.82
2017-04-26T04:13:23.894Z,0.78
2017-04-26T04:14:24.497Z,0.84
2017-04-26T04:15:25.094Z,0.82
2017-04-26T04:16:25.699Z,0.78
2017-04-26T04:17:26.310Z,0.77
2017-04-26T04:18:26.921Z,0.87
2017-04-26T04:19:27.526Z,0.80
2017-04-26T04:20:28.131Z,0.90
2017-04-26T04:21:28.735Z,0.84
2017-04-26T04:22:29.341Z,0.96
2017-04-26T04:23:29.930Z,0.85
2017-04-26T04:24:30.541Z,0.84
2017-04-26T04:25:31.195Z,0.87
2017-04-26T04:26:31.809Z,0.80
2017-04-26T04:27:32.406Z,0.78
2017-04-26T04:28:33.032Z,0.78
2017-04-26T04:29:33.624Z,0.80
2017-04-26T04:30:34.217Z,0.84
2017-04-26T04:31:34.813Z,0.81
2017-04-26T04:32:35.412Z,0.87
2017-04-26T04:33:36.024Z,0.91
2017-04-26T04:34:36.612Z,0.82
2017-04-26T04:35:37.224Z,0.80
2017-04-26T04:36:37.828Z,0.80
2017-04-26T04:37:38.448Z,0.82
2017-04-26T04:38:39.081Z,0.87
2017-04-26T04:39:39.689Z,1.00
2017-04-26T04:40:40.313Z,0.82
2017-04-26T04:41:40.909Z,0.88
2017-04-26T04:42:41.501Z,0.93
2017-04-26T04:43:42.109Z,0.98
2017-04-26T04:44:42.706Z,0.90
2017-04-26T04:45:43.301Z,0.96
2017-04-26T04:46:43.898Z,0.99
2017-04-26T04:47:44.507Z,1.00
2017-04-26T04:48:45.113Z,1.08
2017-04-26T04:49:45.710Z,1.14
2017-04-26T04:50:46.319Z,1.00
2017-04-26T04:51:46.920Z,1.14
2017-04-26T04:52:47.537Z,1.13
2017-04-26T04:53:48.144Z,1.16
2017-04-26T04:54:48.738Z,1.23
2017-04-26T04:55:49.394Z,1.32
2017-04-26T04:56:49.998Z,1.52
2017-04-26T04:57:50.595Z,1.78
2017-04-26T04:58:51.206Z,1.95
2017-04-26T04:59:51.815Z,2.17
2017-04-26T05:00:52.423Z,2.33
2017-04-26T05:01:53.025Z,2.60
2017-04-26T05:02:53.631Z,2.87
2017-04-26T05:03:54.250Z,2.91
2017-04-26T05:04:54.846Z,3.02
2017-04-26T05:05:55.445Z,3.11
2017-04-26T05:06:56.064Z,3.25
2017-04-26T05:07:56.672Z,3.30
2017-04-26T05:08:57.278Z,3.44
2017-04-26T05:09:57.893Z,3.62
2017-04-26T05:10:58.498Z,3.49
2017-04-26T05:11:59.105Z,3.51
2017-04-26T05:12:59.713Z,3.72
2017-04-26T05:14:00.321Z,3.91
2017-04-26T05:15:00.921Z,4.16
2017-04-26T05:16:01.521Z,4.34
2017-04-26T05:17:02.126Z,4.46
2017-04-26T05:18:02.725Z,4.63
2017-04-26T05:19:03.329Z,4.90
2017-04-26T05:20:03.928Z,5.29
2017-04-26T05:21:04.611Z,5.33
2017-04-26T05:22:05.236Z,5.52
2017-04-26T05:23:05.839Z,5.96
2017-04-26T05:24:06.459Z,6.32
2017-04-26T05:25:07.075Z,6.76
2017-04-26T05:26:07.689Z,7.04
2017-04-26T05:27:08.303Z,7.39
2017-04-26T05:28:08.918Z,7.72
2017-04-26T05:29:09.529Z,7.99
2017-04-26T05:30:10.139Z,8.31
2017-04-26T05:31:10.767Z,8.86
2017-04-26T05:32:11.398Z,8.96
2017-04-26T05:33:12.010Z,8.96
2017-04-26T05:34:12.618Z,9.00
2017-04-26T05:35:13.227Z,9.38
2017-04-26T05:36:13.883Z,9.74
2017-04-26T05:37:14.485Z,9.87
2017-04-26T05:38:15.099Z,10.32
2017-04-26T05:39:15.718Z,10.57
2017-04-26T05:40:16.341Z,10.82
2017-04-26T05:41:16.969Z,11.12
2017-04-26T05:42:17.587Z,11.00
2017-04-26T05:43:18.206Z,10.66
2017-04-26T05:44:18.823Z,10.45
2017-04-26T05:45:19.442Z,10.87
2017-04-26T05:46:20.099Z,11.47
2017-04-26T05:47:20.706Z,11.42
2017-04-26T05:48:21.327Z,10.90
2017-04-26T05:49:21.949Z,10.49
2017-04-26T05:50:22.566Z,10.24
2017-04-26T05:51:23.229Z,9.95
2017-04-26T05:52:23.849Z,9.76
2017-04-26T05:53:24.455Z,9.71
2017-04-26T05:54:25.073Z,9.54
2017-04-26T05:55:25.681Z,9.28
2017-04-26T05:56:26.293Z,9.01
2017-04-26T05:57:26.900Z,8.73
2017-04-26T05:58:27.503Z,8.59
2017-04-26T05:59:28.117Z,8.35
2017-04-26T06:00:28.725Z,8.16
2017-04-26T06:01:29.327Z,8.28
2017-04-26T06:02:29.935Z,8.66
2017-04-26T06:03:30.556Z,8.92
2017-04-26T06:04:31.170Z,8.81
2017-04-26T06:05:31.794Z,9.14
2017-04-26T06:06:32.428Z,9.83
2017-04-26T06:07:33.050Z,10.45
2017-04-26T06:08:33.668Z,10.83
2017-04-26T06:09:34.279Z,11.08
2017-04-26T06:10:34.903Z,11.37
2017-04-26T06:11:35.567Z,11.69
2017-04-26T06:12:36.180Z,12.25
2017-04-26T06:13:36.806Z,12.85
2017-04-26T06:14:37.432Z,13.31
2017-04-26T06:15:38.053Z,13.77
2017-04-26T06:16:38.687Z,13.82
2017-04-26T06:17:39.316Z,13.96
2017-04-26T06:18:39.941Z,14.17
2017-04-26T06:19:40.569Z,14.65
2017-04-26T06:20:41.193Z,14.17
2017-04-26T06:21:41.823Z,14.25
2017-04-26T06:22:42.455Z,14.50
2017-04-26T06:23:43.067Z,14.32
2017-04-26T06:24:43.678Z,14.26
2017-04-26T06:25:44.304Z,14.66
2017-04-26T06:26:44.928Z,14.89
2017-04-26T06:27:45.549Z,14.99
2017-04-26T06:28:46.162Z,15.29
2017-04-26T06:29:46.786Z,15.31
2017-04-26T06:30:47.404Z,14.89
2017-04-26T06:31:48.033Z,14.60
2017-04-26T06:32:48.651Z,14.66
2017-04-26T06:33:49.275Z,14.23
2017-04-26T06:34:49.907Z,14.03
2017-04-26T06:35:50.527Z,14.02
2017-04-26T06:36:51.156Z,14.17
2017-04-26T06:37:51.785Z,14.45
2017-04-26T06:38:52.419Z,13.87
2017-04-26T06:39:53.047Z,13.10
2017-04-26T06:40:53.709Z,12.86
2017-04-26T06:41:54.326Z,13.01
2017-04-26T06:42:54.938Z,13.44
2017-04-26T06:43:55.556Z,14.10
2017-04-26T06:44:56.188Z,14.57
2017-04-26T06:45:56.813Z,14.85
2017-04-26T06:46:57.431Z,14.88
2017-04-26T06:47:58.059Z,14.75
2017-04-26T06:48:58.694Z,14.68
2017-04-26T06:49:59.319Z,14.30
2017-04-26T06:50:59.936Z,14.43
2017-04-26T06:52:00.569Z,14.60
2017-04-26T06:53:01.199Z,14.48
2017-04-26T06:54:01.829Z,14.48
2017-04-26T06:55:02.445Z,14.39
2017-04-26T06:56:03.079Z,14.19
2017-04-26T06:57:03.710Z,14.12
2017-04-26T06:58:04.344Z,13.97
2017-04-26T06:59:04.985Z,13.89
2017-04-26T07:00:05.595Z,14.03
2017-04-26T07:01:06.262Z,14.30
2017-04-26T07:02:06.885Z,14.60
2017-04-26T07:03:07.503Z,14.33
2017-04-26T07:04:08.132Z,13.87
2017-04-26T07:05:08.745Z,13.96
2017-04-26T07:06:09.359Z,13.61
2017-04-26T07:07:09.972Z,13.41
2017-04-26T07:08:10.599Z,13.18
2017-04-26T07:09:11.225Z,13.05
2017-04-26T07:10:11.839Z,13.18
2017-04-26T07:11:12.470Z,13.07
2017-04-26T07:12:13.099Z,12.85
2017-04-26T07:13:13.719Z,12.62
2017-04-26T07:14:14.331Z,12.44
2017-04-26T07:15:14.956Z,12.24
2017-04-26T07:16:15.669Z,12.44
2017-04-26T07:17:16.294Z,12.93
2017-04-26T07:18:16.907Z,13.12
2017-04-26T07:19:17.522Z,13.27
2017-04-26T07:20:18.148Z,13.23
2017-04-26T07:21:18.759Z,13.22
2017-04-26T07:22:19.382Z,13.59
2017-04-26T07:23:20.012Z,14.19
2017-04-26T07:24:20.634Z,14.05
2017-04-26T07:25:21.250Z,14.11
2017-04-26T07:26:21.875Z,13.81
2017-04-26T07:27:22.501Z,13.36
2017-04-26T07:28:23.115Z,13.12
2017-04-26T07:29:23.737Z,12.65
2017-04-26T07:30:24.357Z,12.94
2017-04-26T07:31:24.982Z,13.07
2017-04-26T07:32:25.614Z,13.30
2017-04-26T07:33:26.239Z,13.35
2017-04-26T07:34:26.849Z,13.66
2017-04-26T07:35:27.521Z,14.11
2017-04-26T07:36:28.136Z,14.15
2017-04-26T07:37:28.749Z,14.17
2017-04-26T07:38:29.367Z,13.74
2017-04-26T07:39:29.975Z,12.97
2017-04-26T07:40:30.597Z,12.69
2017-04-26T07:41:31.226Z,12.76
2017-04-26T07:42:31.850Z,12.32
2017-04-26T07:43:32.461Z,12.13
2017-04-26T07:44:33.070Z,12.01
2017-04-26T07:45:33.694Z,12.42
2017-04-26T07:46:34.301Z,12.76
2017-04-26T07:47:34.910Z,13.25
2017-04-26T07:48:35.534Z,13.60
2017-04-26T07:49:36.145Z,13.69
2017-04-26T07:50:36.757Z,13.08
2017-04-26T07:51:37.378Z,12.49
2017-04-26T07:52:38.005Z,12.19
2017-04-26T07:53:38.610Z,12.09
2017-04-26T07:54:39.231Z,12.09
2017-04-26T07:55:39.890Z,12.10
2017-04-26T07:56:40.507Z,11.83
2017-04-26T07:57:41.128Z,11.65
2017-04-26T07:58:41.751Z,11.67
2017-04-26T07:59:42.361Z,12.31
2017-04-26T08:00:42.985Z,12.90
2017-04-26T08:01:43.610Z,12.82
2017-04-26T08:02:44.239Z,12.35
2017-04-26T08:03:44.850Z,12.29
2017-04-26T08:04:45.471Z,11.85
2017-04-26T08:05:46.220Z,11.59
2017-04-26T08:06:46.842Z,11.42
2017-04-26T08:07:47.461Z,11.40
2017-04-26T08:08:48.078Z,11.90
2017-04-26T08:09:48.696Z,12.29
2017-04-26T08:10:49.322Z,12.98
2017-04-26T08:11:49.951Z,13.19
2017-04-26T08:12:50.579Z,12.86
2017-04-26T08:13:51.200Z,12.29
2017-04-26T08:14:51.826Z,11.73
2017-04-26T08:15:52.483Z,11.48
2017-04-26T08:16:53.091Z,11.48
2017-04-26T08:17:53.713Z,11.19
2017-04-26T08:18:54.330Z,10.93
2017-04-26T08:19:54.950Z,10.71
2017-04-26T08:20:55.605Z,10.49
2017-04-26T08:21:56.225Z,10.94
2017-04-26T08:22:56.833Z,11.42
2017-04-26T08:23:57.453Z,11.96
2017-04-26T08:24:58.062Z,12.53
2017-04-26T08:25:58.671Z,12.86
2017-04-26T08:26:59.298Z,12.50
2017-04-26T08:27:59.918Z,12.21
2017-04-26T08:29:00.546Z,11.85
2017-04-26T08:30:01.158Z,12.34
2017-04-26T08:31:01.831Z,12.67
2017-04-26T08:32:02.440Z,12.90
2017-04-26T08:33:03.062Z,13.04
2017-04-26T08:34:03.685Z,13.35
2017-04-26T08:35:04.314Z,13.87
2017-04-26T08:36:04.987Z,14.18
2017-04-26T08:37:05.608Z,14.26
2017-04-26T08:38:06.233Z,14.36
2017-04-26T08:39:06.850Z,14.73
2017-04-26T08:40:07.479Z,14.86
2017-04-26T08:41:08.095Z,14.84
2017-04-26T08:42:08.721Z,14.69
2017-04-26T08:43:09.336Z,14.48
2017-04-26T08:44:09.956Z,14.12
2017-04-26T08:45:10.580Z,13.57
2017-04-26T08:46:11.251Z,13.05
2017-04-26T08:47:11.871Z,12.57
2017-04-26T08:48:12.486Z,12.62
2017-04-26T08:49:13.106Z,12.47
2017-04-26T08:50:13.721Z,12.46
2017-04-26T08:51:14.341Z,13.13
2017-04-26T08:52:14.962Z,13.36
2017-04-26T08:53:15.585Z,13.77
2017-04-26T08:54:16.210Z,14.12
2017-04-26T08:55:16.833Z,14.73
2017-04-26T08:56:17.461Z,15.25
2017-04-26T08:57:18.082Z,15.21
2017-04-26T08:58:18.707Z,15.22
2017-04-26T08:59:19.345Z,14.77
2017-04-26T09:00:19.967Z,14.21
2017-04-26T09:01:20.594Z,13.82
2017-04-26T09:02:21.220Z,13.92
2017-04-26T09:03:21.848Z,14.21
2017-04-26T09:04:22.482Z,14.45
2017-04-26T09:05:23.105Z,14.27
2017-04-26T09:06:23.728Z,14.03
2017-04-26T09:07:24.347Z,13.59
2017-04-26T09:08:24.970Z,13.12
2017-04-26T09:09:25.588Z,12.71
2017-04-26T09:10:26.250Z,12.60
2017-04-26T09:11:26.870Z,12.60
2017-04-26T09:12:27.480Z,12.47
2017-04-26T09:13:28.102Z,12.32
2017-04-26T09:14:28.722Z,12.04
2017-04-26T09:15:29.618Z,11.85
2017-04-26T09:16:30.238Z,12.27
2017-04-26T09:17:30.853Z,12.82
2017-04-26T09:18:31.473Z,13.25
2017-04-26T09:19:32.098Z,13.82
2017-04-26T09:20:32.724Z,14.33
2017-04-26T09:21:33.349Z,14.33
2017-04-26T09:22:33.967Z,14.26
2017-04-26T09:23:34.582Z,14.12
2017-04-26T09:24:35.197Z,13.78
2017-04-26T09:25:35.799Z,13.49
2017-04-26T09:26:36.408Z,13.00
2017-04-26T09:27:37.017Z,13.19
2017-04-26T09:28:37.633Z,13.25
2017-04-26T09:29:38.249Z,13.79
2017-04-26T09:30:38.871Z,14.05
2017-04-26T09:31:39.481Z,14.40
2017-04-26T09:32:40.091Z,14.60
2017-04-26T09:33:40.698Z,14.47
2017-04-26T09:34:41.310Z,14.15
2017-04-26T09:35:41.968Z,14.08
2017-04-26T09:36:42.592Z,13.84
2017-04-26T09:37:43.213Z,13.36
2017-04-26T09:38:43.839Z,12.90
2017-04-26T09:39:44.456Z,12.50
2017-04-26T09:40:45.121Z,12.42
2017-04-26T09:41:45.738Z,12.34
2017-04-26T09:42:46.352Z,12.16
2017-04-26T09:43:46.960Z,12.00
2017-04-26T09:44:47.579Z,11.85
2017-04-26T09:45:48.239Z,12.44
2017-04-26T09:46:48.852Z,13.01
2017-04-26T09:47:49.465Z,13.63
2017-04-26T09:48:50.094Z,13.92
2017-04-26T09:49:50.716Z,13.99
2017-04-26T09:50:51.386Z,14.10
2017-04-26T09:51:51.993Z,14.15
2017-04-26T09:52:52.619Z,14.54
2017-04-26T09:53:53.245Z,14.85
2017-04-26T09:54:53.866Z,15.28
2017-04-26T09:55:54.490Z,15.00
2017-04-26T09:56:55.108Z,14.39
2017-04-26T09:57:55.741Z,14.02
2017-04-26T09:58:56.368Z,13.61
2017-04-26T09:59:57.216Z,13.79
2017-04-26T10:00:57.849Z,14.17
2017-04-26T10:01:58.474Z,14.44
2017-04-26T10:02:59.087Z,14.72
2017-04-26T10:03:59.713Z,15.21
2017-04-26T10:05:00.342Z,15.68
2017-04-26T10:06:00.961Z,16.07
2017-04-26T10:07:01.574Z,15.77
2017-04-26T10:08:02.200Z,15.49
2017-04-26T10:09:02.812Z,15.83
2017-04-26T10:10:03.441Z,16.05
2017-04-26T10:11:04.048Z,15.80
2017-04-26T10:12:04.667Z,15.40
2017-04-26T10:13:05.292Z,15.31
2017-04-26T10:14:05.911Z,15.32
2017-04-26T10:15:06.562Z,15.14
2017-04-26T10:16:07.391Z,14.45
2017-04-26T10:17:08.017Z,14.17
2017-04-26T10:18:08.655Z,14.07
2017-04-26T10:19:09.265Z,13.78
2017-04-26T10:20:09.873Z,13.72
2017-04-26T10:21:10.490Z,13.81
2017-04-26T10:22:11.112Z,13.75
2017-04-26T10:23:11.735Z,14.10
2017-04-26T10:24:12.347Z,14.12
2017-04-26T10:25:13.167Z,14.11
2017-04-26T10:26:13.793Z,14.32
2017-04-26T10:27:14.415Z,14.66
2017-04-26T10:28:19.872Z,14.92
2017-04-26T10:29:16.650Z,15.09
2017-04-26T10:30:19.366Z,15.21
2017-04-26T10:31:18.888Z,15.37
2017-04-26T10:32:19.518Z,15.75
2017-04-26T10:33:20.137Z,16.12
2017-04-26T10:34:20.766Z,16.12
2017-04-26T10:35:21.599Z,15.92
2017-04-26T10:36:22.279Z,15.55
2017-04-26T10:37:22.892Z,15.09
2017-04-26T10:38:23.504Z,15.46
2017-04-26T10:39:24.136Z,15.76
2017-04-26T10:40:24.761Z,15.95
2017-04-26T10:41:25.376Z,16.17
2017-04-26T10:42:26.021Z,15.68
2017-04-26T10:43:26.645Z,15.09
2017-04-26T10:44:27.470Z,14.58
2017-04-26T10:45:28.083Z,14.66
2017-04-26T10:46:28.765Z,15.06
2017-04-26T10:47:29.389Z,15.13
2017-04-26T10:48:30.019Z,15.57
2017-04-26T10:49:30.648Z,15.97
2017-04-26T10:50:31.273Z,16.21
2017-04-26T10:51:31.895Z,16.42
2017-04-26T10:52:32.521Z,16.87
2017-04-26T10:53:33.141Z,16.82
2017-04-26T10:54:33.750Z,16.71
2017-04-26T10:55:34.415Z,16.42
2017-04-26T10:56:35.038Z,16.12
2017-04-26T10:57:35.649Z,15.64
2017-04-26T10:58:36.274Z,15.25
2017-04-26T10:59:36.897Z,15.19
2017-04-26T11:00:37.566Z,15.10
2017-04-26T11:01:38.183Z,15.22
2017-04-26T11:02:38.812Z,15.19
2017-04-26T11:03:39.426Z,15.13
2017-04-26T11:04:40.055Z,15.07
2017-04-26T11:05:40.678Z,15.13
2017-04-26T11:06:41.302Z,15.09
2017-04-26T11:07:41.918Z,14.94
2017-04-26T11:08:42.538Z,14.89
2017-04-26T11:09:43.161Z,14.66
2017-04-26T11:10:43.836Z,14.66
2017-04-26T11:11:44.452Z,14.75
2017-04-26T11:12:45.075Z,14.81
2017-04-26T11:13:45.705Z,14.58
2017-04-26T11:14:46.328Z,14.72
2017-04-26T11:15:46.946Z,14.72
2017-04-26T11:16:47.557Z,14.60
2017-04-26T11:17:48.179Z,14.43
2017-04-26T11:18:48.805Z,14.58
2017-04-26T11:19:49.415Z,14.51
2017-04-26T11:20:50.091Z,14.63
2017-04-26T11:21:50.716Z,14.81
2017-04-26T11:22:53.686Z,15.07
2017-04-26T11:23:52.947Z,15.04
2017-04-26T11:24:53.558Z,15.21
2017-04-26T11:25:54.184Z,15.46
2017-04-26T11:26:54.815Z,15.19
2017-04-26T11:27:55.439Z,15.01
2017-04-26T11:28:56.061Z,15.00
2017-04-26T11:29:56.677Z,15.14
2017-04-26T11:30:57.312Z,15.36
2017-04-26T11:31:57.935Z,15.71
2017-04-26T11:32:58.558Z,15.76
2017-04-26T11:33:59.169Z,15.71
2017-04-26T11:34:59.784Z,15.57
2017-04-26T11:36:00.395Z,15.71
2017-04-26T11:37:01.005Z,15.68
2017-04-26T11:38:01.630Z,15.54
2017-04-26T11:39:02.249Z,15.37
2017-04-26T11:40:02.862Z,15.31
2017-04-26T11:41:03.537Z,15.21
2017-04-26T11:42:04.160Z,15.06
2017-04-26T11:43:04.771Z,15.10
2017-04-26T11:44:05.396Z,15.28
2017-04-26T11:45:06.016Z,16.01
2017-04-26T11:46:06.633Z,16.53
2017-04-26T11:47:07.259Z,16.98
2017-04-26T11:48:07.885Z,17.19
2017-04-26T11:49:08.511Z,17.41
2017-04-26T11:50:09.135Z,17.83
2017-04-26T11:51:09.752Z,17.60
2017-04-26T11:52:10.377Z,17.48
2017-04-26T11:53:10.992Z,17.86
2017-04-26T11:54:11.623Z,18.11
2017-04-26T11:55:12.250Z,18.62
2017-04-26T11:56:12.914Z,19.02
2017-04-26T11:57:13.559Z,19.39
2017-04-26T11:58:14.166Z,19.58
2017-04-26T11:59:14.790Z,19.73
2017-04-26T12:00:15.426Z,19.95
2017-04-26T12:01:16.052Z,20.03
2017-04-26T12:02:16.795Z,19.51
2017-04-26T12:03:17.426Z,19.07
2017-04-26T12:04:18.079Z,18.81
2017-04-26T12:05:18.705Z,18.66
2017-04-26T12:06:19.369Z,18.30
2017-04-26T12:07:19.985Z,18.27
2017-04-26T12:08:20.609Z,18.34
2017-04-26T12:09:21.223Z,17.83
2017-04-26T12:10:21.844Z,17.31
2017-04-26T12:11:22.461Z,16.91
2017-04-26T12:12:23.070Z,16.49
2017-04-26T12:13:23.690Z,16.25
2017-04-26T12:14:24.303Z,15.83
2017-04-26T12:15:24.925Z,15.65
2017-04-26T12:16:25.753Z,15.37
2017-04-26T12:17:26.390Z,15.18
2017-04-26T12:18:26.999Z,14.99
2017-04-26T12:19:27.622Z,14.86
2017-04-26T12:20:28.250Z,14.63
2017-04-26T12:21:28.873Z,14.54
2017-04-26T12:22:29.506Z,14.62
2017-04-26T12:23:31.118Z,14.60
2017-04-26T12:24:31.741Z,14.47
2017-04-26T12:25:32.364Z,14.62
2017-04-26T12:26:33.025Z,14.57
2017-04-26T12:27:33.646Z,14.52
2017-04-26T12:28:34.266Z,14.54
2017-04-26T12:29:34.896Z,14.57
2017-04-26T12:30:35.526Z,14.72
2017-04-26T12:31:36.146Z,14.91
2017-04-26T12:32:36.781Z,15.10
2017-04-26T12:33:37.402Z,15.10
2017-04-26T12:34:38.224Z,15.25
2017-04-26T12:35:38.841Z,15.14
2017-04-26T12:36:39.460Z,15.18
2017-04-26T12:37:40.082Z,15.36
2017-04-26T12:38:40.699Z,15.49
2017-04-26T12:39:41.321Z,15.69
2017-04-26T12:40:41.944Z,15.82
2017-04-26T12:41:42.568Z,15.82
2017-04-26T12:42:43.193Z,15.79
2017-04-26T12:43:43.814Z,15.82
2017-04-26T12:44:44.423Z,15.91
2017-04-26T12:45:45.055Z,16.10
2017-04-26T12:46:45.662Z,16.13
2017-04-26T12:47:46.395Z,16.01
2017-04-26T12:48:47.006Z,15.95
2017-04-26T12:49:47.612Z,15.83
2017-04-26T12:50:48.285Z,15.97
2017-04-26T12:51:48.889Z,16.46
2017-04-26T12:52:49.510Z,16.38
2017-04-26T12:53:50.122Z,16.78
2017-04-26T12:54:50.724Z,17.04
2017-04-26T12:55:51.334Z,17.14
2017-04-26T12:56:51.946Z,17.36
2017-04-26T12:57:52.559Z,17.77
2017-04-26T12:58:53.181Z,18.04
2017-04-26T12:59:53.806Z,18.50
2017-04-26T13:00:54.496Z,19.14
2017-04-26T13:01:55.119Z,19.59
2017-04-26T13:02:55.742Z,19.64
2017-04-26T13:03:56.373Z,19.55
2017-04-26T13:04:56.994Z,19.39
2017-04-26T13:05:57.609Z,19.40
2017-04-26T13:06:58.236Z,19.21
2017-04-26T13:07:58.860Z,18.95
2017-04-26T13:08:59.686Z,18.58
2017-04-26T13:10:00.432Z,18.65
2017-04-26T13:11:01.079Z,19.00
2017-04-26T13:12:01.710Z,19.29